»·PEaware :: N454AH O60-KSQL

N454AH :: O60-KSQL

FLIGHT INFORMATION

Flight Status: Arrived
Operator: Privately registered:
United States
More flights under this callsign
Pilot: Andrew H. (17317)
Aircraft: PIPER PA-28R-201 ARROW
(P28R)
More flights by this aircraft type
Origin: O60 Cloverdale Mun
United States
Destination: KSQL San Carlos
United States
More flights between these airports :: More routes between these airports
Route: PYE DRANK HADLY
File this flight plan on PilotEdge
Remarks:
Altitude:
(Current/Filed)
6,500ft
Speed:
(Current/Filed)
135kts
Departed: 16-Feb-18 07:40 PM
Arrived: 16-Feb-18 08:30 PM
Distance/Time
Traveled:
84nm/0:50
Distance/Time
To Go:
Arrived

Flight Plot

Page will automatically refresh every two minutes.

Flight plan parsing failed; only flown route is shown


Map Options




Map Legend


Flown Route
Filed Route
Departure Airport
Arrival Airport
Navaid (VOR, NDB)
Fix

Horizontal Profiles

Position Reports

Time Latitude Longitude Heading Altitude Ground
Speed
16-Feb-18 19:46 38.669485 -122.945031 172 4229ft 125kts
16-Feb-18 19:47 38.633914 -122.952964 193 4628ft 146kts
16-Feb-18 19:48 38.593306 -122.963163 185 4755ft 152kts
16-Feb-18 19:49 38.553346 -122.951959 172 4729ft 148kts
16-Feb-18 19:50 38.514139 -122.945282 172 4982ft 131kts
16-Feb-18 19:51 38.480083 -122.939230 171 5420ft 118kts
16-Feb-18 19:52 38.448407 -122.933555 171 5864ft 112kts
16-Feb-18 19:53 38.418239 -122.928152 171 6308ft 108kts
16-Feb-18 19:54 38.388678 -122.922860 171 6657ft 114kts
16-Feb-18 19:55 38.352481 -122.916401 172 6531ft 142kts
16-Feb-18 19:56 38.311920 -122.909188 172 6386ft 151kts
16-Feb-18 19:57 38.271113 -122.901922 171 6439ft 143kts
16-Feb-18 19:58 38.229652 -122.894534 172 6103ft 160kts
16-Feb-18 19:59 38.185244 -122.886643 172 5793ft 160kts
16-Feb-18 20:00 38.141321 -122.878850 172 5566ft 156kts
16-Feb-18 20:01 38.101049 -122.871702 172 5474ft 134kts
16-Feb-18 20:02 38.065818 -122.865482 172 5331ft 131kts
16-Feb-18 20:03 38.027885 -122.858916 172 4888ft 141kts
16-Feb-18 20:04 37.988500 -122.852116 172 4440ft 144kts
16-Feb-18 20:05 37.948694 -122.845249 172 3990ft 144kts
16-Feb-18 20:06 37.908992 -122.838406 172 3540ft 144kts
16-Feb-18 20:07 37.872639 -122.832142 172 3527ft 123kts
16-Feb-18 20:08 37.839734 -122.826468 172 3528ft 116kts
16-Feb-18 20:09 37.808018 -122.821003 172 3528ft 114kts
16-Feb-18 20:10 37.776590 -122.815559 171 3511ft 113kts
16-Feb-18 20:11 37.744995 -122.810173 173 3514ft 115kts
16-Feb-18 20:12 37.713211 -122.804767 172 3508ft 115kts
16-Feb-18 20:13 37.678886 -122.798859 171 3511ft 132kts
16-Feb-18 20:14 37.641393 -122.792432 172 3529ft 139kts
16-Feb-18 20:15 37.602677 -122.785818 172 3529ft 141kts
16-Feb-18 20:16 37.567490 -122.766699 138 3515ft 142kts
16-Feb-18 20:17 37.538161 -122.733067 138 3495ft 142kts
16-Feb-18 20:18 37.509122 -122.699330 137 3495ft 142kts
16-Feb-18 20:19 37.479024 -122.664425 136 3160ft 144kts
16-Feb-18 20:20 37.451592 -122.632600 138 2838ft 122kts
16-Feb-18 20:21 37.429542 -122.607048 136 2808ft 97kts
16-Feb-18 20:22 37.408385 -122.582490 133 2810ft 124kts
16-Feb-18 20:23 37.416047 -122.534978 65 2412ft 145kts
16-Feb-18 20:24 37.429346 -122.495575 68 2231ft 99kts
16-Feb-18 20:25 37.438774 -122.467537 65 2125ft 80kts
16-Feb-18 20:26 37.447165 -122.442573 64 2137ft 78kts
16-Feb-18 20:27 37.458217 -122.409849 65 2303ft 124kts
16-Feb-18 20:28 37.472585 -122.366785 66 2331ft 139kts
16-Feb-18 20:29 37.483581 -122.322424 91 2105ft 110kts
16-Feb-18 20:30 37.480741 -122.289047 95 1753ft 94kts
16-Feb-18 20:31 37.479775 -122.260292 87 1574ft 78kts
16-Feb-18 20:32 37.486469 -122.235858 50 1337ft 76kts
16-Feb-18 20:33 37.505267 -122.228977 322 904ft 78kts
16-Feb-18 20:34 37.521868 -122.246183 322 832ft 77kts
16-Feb-18 20:35 37.535291 -122.265064 265 811ft 71kts
16-Feb-18 20:36 37.520391 -122.258986 138 307ft 75kts
16-Feb-18 20:37 37.510887 -122.249115 271 5ft 4kts
16-Feb-18 20:38 37.511611 -122.250849 229 5ft 0kts
16-Feb-18 20:39 37.511611 -122.250849 229 5ft 0kts
16-Feb-18 20:40 37.511611 -122.250849 229 5ft 0kts
16-Feb-18 20:41 37.511611 -122.250849 229 5ft 0kts
16-Feb-18 20:42 37.511611 -122.250849 229 5ft 0kts
16-Feb-18 20:43 37.511611 -122.250849 229 5ft 0kts
16-Feb-18 20:44 37.511611 -122.250849 229 5ft 0kts
16-Feb-18 20:45 37.511611 -122.250849 229 5ft 0kts
16-Feb-18 20:46 37.511611 -122.250849 229 5ft 0kts
16-Feb-18 20:47 37.511611 -122.250849 229 5ft 0kts
16-Feb-18 20:48 37.511611 -122.250849 229 5ft 0kts
16-Feb-18 20:49 37.511611 -122.250849 229 5ft 0kts
16-Feb-18 20:50 37.511611 -122.250849 229 5ft 0kts
16-Feb-18 20:51 37.511611 -122.250849 229 5ft 0kts

Navigation Log

Ident Type
Flight plan parsing failed, navigation log unavailable